createdAt,value
2023-05-12T00:01:23.883Z,12.13
2023-05-12T00:03:53.891Z,12.01
2023-05-12T00:06:21.389Z,11.94
2023-05-12T00:08:48.289Z,11.93
2023-05-12T00:11:15.377Z,12.11
2023-05-12T00:13:42.527Z,12.14
2023-05-12T00:16:10.321Z,12.06
2023-05-12T00:18:37.361Z,12.13
2023-05-12T00:21:04.913Z,11.99
2023-05-12T00:23:32.012Z,11.97
2023-05-12T00:25:58.920Z,12.00
2023-05-12T00:28:25.890Z,11.99
2023-05-12T00:30:52.908Z,11.97
2023-05-12T00:33:19.967Z,11.93
2023-05-12T00:35:46.799Z,11.94
2023-05-12T00:38:13.996Z,11.96
2023-05-12T00:40:41.521Z,11.86
2023-05-12T00:43:08.860Z,11.89
2023-05-12T00:45:36.898Z,11.81
2023-05-12T00:48:05.349Z,11.83
2023-05-12T00:50:32.613Z,11.70
2023-05-12T00:53:02.271Z,11.62
2023-05-12T00:55:30.341Z,11.64
2023-05-12T00:57:57.426Z,11.69
2023-05-12T01:03:05.935Z,11.59
2023-05-12T01:05:43.068Z,11.60
2023-05-12T01:08:13.400Z,11.62
2023-05-12T01:10:44.924Z,11.48
2023-05-12T01:13:12.104Z,11.57
2023-05-12T01:15:43.281Z,11.56
2023-05-12T01:18:11.948Z,11.50
2023-05-12T01:20:42.206Z,11.58
2023-05-12T01:23:10.303Z,11.57
2023-05-12T01:25:39.562Z,11.65
2023-05-12T01:28:07.595Z,11.66
2023-05-12T01:30:35.387Z,11.59
2023-05-12T01:33:02.534Z,11.58
2023-05-12T01:35:29.485Z,11.74
2023-05-12T01:37:56.556Z,11.60
2023-05-12T01:40:23.726Z,11.66
2023-05-12T01:42:50.651Z,11.74
2023-05-12T01:45:17.708Z,11.65
2023-05-12T01:47:44.639Z,11.71
2023-05-12T01:50:11.649Z,11.74
2023-05-12T01:52:38.702Z,11.77
2023-05-12T01:55:06.013Z,11.73
2023-05-12T01:57:33.166Z,11.83
2023-05-12T02:00:01.042Z,11.82
2023-05-12T02:02:28.556Z,11.85
2023-05-12T02:04:56.037Z,11.83
2023-05-12T02:07:23.162Z,11.99
2023-05-12T02:09:50.217Z,11.89
2023-05-12T02:12:17.215Z,11.97
2023-05-12T02:14:44.165Z,11.99
2023-05-12T02:17:11.089Z,12.03
2023-05-12T02:19:38.100Z,11.91
2023-05-12T02:22:05.281Z,11.87
2023-05-12T02:24:32.132Z,11.71
2023-05-12T02:26:59.013Z,11.67
2023-05-12T02:29:26.252Z,11.65
2023-05-12T02:31:53.174Z,11.77
2023-05-12T02:34:20.097Z,11.79
2023-05-12T02:36:47.114Z,11.72
2023-05-12T02:39:14.259Z,11.66
2023-05-12T02:41:41.220Z,11.46
2023-05-12T02:44:08.258Z,11.50
2023-05-12T02:46:35.429Z,11.57
2023-05-12T02:49:02.581Z,11.53
2023-05-12T02:51:29.862Z,11.61
2023-05-12T02:53:56.820Z,11.59
2023-05-12T02:56:23.711Z,11.66
2023-05-12T02:58:50.970Z,11.64
2023-05-12T03:01:17.929Z,11.79
2023-05-12T03:03:45.185Z,11.74
2023-05-12T03:06:12.546Z,11.67
2023-05-12T03:08:39.651Z,11.56
2023-05-12T03:11:06.852Z,11.72
2023-05-12T03:13:34.073Z,11.82
2023-05-12T03:16:01.901Z,11.71
2023-05-12T03:18:29.386Z,11.63
2023-05-12T03:20:56.896Z,11.58
2023-05-12T03:23:23.816Z,11.70
2023-05-12T03:25:50.752Z,11.69
2023-05-12T03:28:17.903Z,11.64
2023-05-12T03:30:44.780Z,11.83
2023-05-12T03:33:11.895Z,11.94
2023-05-12T03:35:38.862Z,11.92
2023-05-12T03:38:06.072Z,11.71
2023-05-12T03:40:33.166Z,11.75
2023-05-12T03:43:00.136Z,11.88
2023-05-12T03:45:27.244Z,11.95
2023-05-12T03:47:54.405Z,12.13
2023-05-12T03:50:21.589Z,12.22
2023-05-12T03:52:48.633Z,12.00
2023-05-12T03:55:15.600Z,12.16
2023-05-12T03:57:42.585Z,12.19
2023-05-12T04:00:10.087Z,11.98
2023-05-12T04:02:37.418Z,11.95
2023-05-12T04:05:09.038Z,11.94
2023-05-12T04:07:36.177Z,12.03
2023-05-12T04:10:04.027Z,12.14
2023-05-12T04:12:31.529Z,12.05
2023-05-12T04:14:59.455Z,12.02
2023-05-12T04:17:26.678Z,12.08
2023-05-12T04:19:54.259Z,11.96
2023-05-12T04:22:22.833Z,11.99
2023-05-12T04:24:52.988Z,11.91
2023-05-12T04:27:20.125Z,12.03
2023-05-12T04:29:47.914Z,12.18
2023-05-12T04:32:18.471Z,12.25
2023-05-12T04:34:48.806Z,12.30
2023-05-12T04:37:16.140Z,12.10
2023-05-12T04:39:43.376Z,12.13
2023-05-12T04:42:10.350Z,11.91
2023-05-12T04:44:37.330Z,11.99
2023-05-12T04:47:04.551Z,12.11
2023-05-12T04:49:31.515Z,12.18
2023-05-12T04:52:00.133Z,12.24
2023-05-12T04:54:27.141Z,12.30
2023-05-12T04:56:54.202Z,12.16
2023-05-12T04:59:25.394Z,12.53
2023-05-12T05:01:56.372Z,12.34
2023-05-12T05:04:25.875Z,12.54
2023-05-12T05:07:02.558Z,12.79
2023-05-12T05:09:29.746Z,12.75
2023-05-12T05:11:56.716Z,12.88
2023-05-12T05:14:43.447Z,12.73
2023-05-12T05:17:12.635Z,12.40
2023-05-12T05:19:59.325Z,12.58
2023-05-12T05:22:27.584Z,12.85
2023-05-12T05:24:59.186Z,12.70
2023-05-12T05:27:55.307Z,12.82
2023-05-12T05:30:22.205Z,12.99
2023-05-12T05:32:49.299Z,13.07
2023-05-12T05:35:16.786Z,12.79
2023-05-12T05:37:43.881Z,12.75
2023-05-12T05:40:25.022Z,13.01
2023-05-12T05:43:11.552Z,12.81
2023-05-12T05:45:38.660Z,12.68
2023-05-12T05:48:05.803Z,12.28
2023-05-12T05:50:41.526Z,12.44
2023-05-12T05:53:09.562Z,12.67
2023-05-12T05:55:36.490Z,12.73
2023-05-12T05:58:04.808Z,12.52
2023-05-12T06:00:34.195Z,12.64
2023-05-12T06:03:01.444Z,12.91
2023-05-12T06:05:28.580Z,12.91
2023-05-12T06:07:55.726Z,12.58
2023-05-12T06:10:22.954Z,12.95
2023-05-12T06:12:52.745Z,13.00
2023-05-12T06:15:20.020Z,13.00
2023-05-12T06:17:47.195Z,12.67
2023-05-12T06:20:14.656Z,12.71
2023-05-12T06:22:44.617Z,12.58
2023-05-12T06:25:11.797Z,12.77
2023-05-12T06:27:38.863Z,12.86
2023-05-12T06:30:06.339Z,12.94
2023-05-12T06:32:33.611Z,12.79
2023-05-12T06:35:01.612Z,12.88
2023-05-12T06:37:28.555Z,12.64
2023-05-12T06:39:55.580Z,12.40
2023-05-12T06:42:45.318Z,12.59
2023-05-12T06:45:20.566Z,12.78
2023-05-12T06:47:48.233Z,12.44
2023-05-12T06:50:17.199Z,12.31
2023-05-12T06:52:50.189Z,12.62
2023-05-12T06:55:22.183Z,12.44
2023-05-12T06:58:08.028Z,12.72
2023-05-12T07:00:59.797Z,12.61
2023-05-12T07:03:32.991Z,12.64
2023-05-12T07:06:12.142Z,12.85
2023-05-12T07:08:47.189Z,12.96
2023-05-12T07:11:25.619Z,12.88
2023-05-12T07:13:53.148Z,12.74
2023-05-12T07:16:29.427Z,12.89
2023-05-12T07:18:59.667Z,13.07
2023-05-12T07:21:34.685Z,13.14
2023-05-12T07:24:11.963Z,13.05
2023-05-12T07:26:57.940Z,12.85
2023-05-12T07:30:02.180Z,12.95
2023-05-12T07:32:51.301Z,12.60
2023-05-12T07:35:48.573Z,12.65
2023-05-12T07:38:38.102Z,12.68
2023-05-12T07:44:56.891Z,12.21
2023-05-12T07:47:52.998Z,12.48
2023-05-12T07:50:35.101Z,12.38
2023-05-12T07:53:05.900Z,12.33
2023-05-12T07:55:49.099Z,12.22
2023-05-12T07:58:32.565Z,12.42
2023-05-12T08:01:06.498Z,12.51
2023-05-12T08:04:02.590Z,12.61
2023-05-12T08:07:16.895Z,12.27
2023-05-12T08:10:05.525Z,12.26
2023-05-12T08:12:52.482Z,12.49
2023-05-12T08:15:21.064Z,12.23
2023-05-12T08:18:20.519Z,12.41
2023-05-12T08:21:08.154Z,12.11
2023-05-12T08:46:12.734Z,12.40
2023-05-12T08:48:47.755Z,12.68
2023-05-12T08:52:01.664Z,12.69
2023-05-12T08:54:48.608Z,13.01
2023-05-12T08:57:29.630Z,12.92
2023-05-12T09:00:26.274Z,12.91
2023-05-12T09:03:05.951Z,12.84
2023-05-12T09:05:46.116Z,12.83
2023-05-12T09:08:28.941Z,12.72
2023-05-12T09:11:47.685Z,12.75
2023-05-12T09:14:56.935Z,13.06
2023-05-12T09:17:36.985Z,12.89
2023-05-12T09:20:23.846Z,12.97
2023-05-12T09:22:58.555Z,12.85
2023-05-12T09:25:36.833Z,12.98
2023-05-12T09:28:03.983Z,12.89
2023-05-12T09:30:32.329Z,13.03
2023-05-12T09:33:23.477Z,12.87
2023-05-12T09:36:01.777Z,13.07
2023-05-12T09:39:22.531Z,13.16
2023-05-12T09:42:16.133Z,13.11
2023-05-12T09:44:47.146Z,13.24
2023-05-12T09:47:59.921Z,13.20
2023-05-12T09:50:44.233Z,13.20
2023-05-12T09:53:25.087Z,13.32
2023-05-12T09:55:54.563Z,13.48
2023-05-12T09:58:25.081Z,13.54
2023-05-12T10:03:49.316Z,13.28
2023-05-12T10:06:43.328Z,13.43
2023-05-12T10:09:39.519Z,13.43
2023-05-12T10:12:41.700Z,13.20
2023-05-12T10:15:22.046Z,13.41
2023-05-12T10:18:01.204Z,13.60
2023-05-12T10:20:47.971Z,13.61
2023-05-12T10:23:19.219Z,13.64
2023-05-12T10:25:48.008Z,13.60
2023-05-12T10:28:23.197Z,13.44
2023-05-12T10:30:51.779Z,13.64
2023-05-12T10:37:11.066Z,13.43
2023-05-12T10:40:15.454Z,13.31
2023-05-12T10:43:21.447Z,13.16
2023-05-12T10:46:19.979Z,13.38
2023-05-12T10:49:24.812Z,13.29
2023-05-12T10:52:01.929Z,13.44
2023-05-12T10:58:58.655Z,13.18
2023-05-12T11:02:07.636Z,13.38
2023-05-12T11:26:38.804Z,13.30
2023-05-12T11:48:44.016Z,13.61
2023-05-12T11:51:11.303Z,13.73
2023-05-12T12:06:11.041Z,13.99
2023-05-12T12:08:40.911Z,13.97
2023-05-12T12:11:08.260Z,13.85
2023-05-12T12:13:35.171Z,13.88
2023-05-12T12:16:14.853Z,13.79
2023-05-12T12:18:42.098Z,13.72
2023-05-12T12:21:10.055Z,13.70
2023-05-12T12:23:50.023Z,13.58
2023-05-12T12:26:21.214Z,13.58
2023-05-12T12:28:49.767Z,13.46
2023-05-12T12:31:17.458Z,13.46
2023-05-12T12:33:44.509Z,13.47
2023-05-12T12:36:22.623Z,13.46
2023-05-12T12:38:49.922Z,13.48
2023-05-12T12:51:54.335Z,13.27
2023-05-12T12:54:21.703Z,13.27
2023-05-12T12:56:50.288Z,13.18
2023-05-12T12:59:47.881Z,13.32
2023-05-12T13:02:15.942Z,13.16
2023-05-12T13:04:43.708Z,13.18
2023-05-12T13:07:12.191Z,13.21
2023-05-12T13:12:15.025Z,13.52
2023-05-12T13:14:42.682Z,13.60
2023-05-12T13:17:10.273Z,13.72
2023-05-12T13:19:38.330Z,13.81
2023-05-12T13:22:06.027Z,13.83
2023-05-12T13:24:33.519Z,13.88
2023-05-12T13:27:10.095Z,13.87
2023-05-12T13:32:17.312Z,14.08
2023-05-12T13:41:06.401Z,14.71
2023-05-12T13:43:33.971Z,14.89
2023-05-12T13:46:07.334Z,15.07
2023-05-12T13:49:14.191Z,15.06
2023-05-12T13:51:41.520Z,15.20
2023-05-12T13:54:09.046Z,15.16
2023-05-12T13:56:38.245Z,15.01
2023-05-12T13:59:06.285Z,14.77
2023-05-12T14:01:33.492Z,14.90
2023-05-12T14:04:00.817Z,14.72
2023-05-12T14:06:28.427Z,14.76
2023-05-12T14:08:55.629Z,14.70
2023-05-12T14:11:23.350Z,14.83
2023-05-12T14:13:51.081Z,14.77
2023-05-12T14:16:18.140Z,14.54
2023-05-12T14:18:52.331Z,14.02
2023-05-12T14:22:22.408Z,14.25
2023-05-12T14:24:53.515Z,14.35
2023-05-12T14:27:20.704Z,14.37
2023-05-12T14:29:47.527Z,14.61
2023-05-12T14:32:14.358Z,14.31
2023-05-12T14:34:41.197Z,14.37
2023-05-12T14:37:08.136Z,14.44
2023-05-12T14:39:35.106Z,13.93
2023-05-12T14:42:02.105Z,13.77
2023-05-12T14:44:28.957Z,13.82
2023-05-12T14:46:55.873Z,13.80
2023-05-12T14:49:22.789Z,13.57
2023-05-12T14:51:49.801Z,13.87
2023-05-12T14:54:25.539Z,13.86
2023-05-12T14:56:53.882Z,13.77
2023-05-12T14:59:21.165Z,13.01
2023-05-12T15:01:48.070Z,13.09
2023-05-12T15:04:15.543Z,12.87
2023-05-12T15:06:42.598Z,13.00
2023-05-12T15:09:09.877Z,13.10
2023-05-12T15:11:37.134Z,12.73
2023-05-12T15:14:05.029Z,13.07
2023-05-12T15:16:33.260Z,12.81
2023-05-12T15:19:00.255Z,12.47
2023-05-12T15:21:27.531Z,12.44
2023-05-12T15:23:54.416Z,12.36
2023-05-12T15:26:32.620Z,12.62
2023-05-12T15:29:00.423Z,12.51
2023-05-12T15:31:29.565Z,12.33
2023-05-12T15:33:57.668Z,12.18
2023-05-12T15:36:24.654Z,12.21
2023-05-12T15:38:51.467Z,11.91
2023-05-12T15:41:18.660Z,12.08
2023-05-12T15:43:46.014Z,12.16
2023-05-12T15:46:12.892Z,12.18
2023-05-12T15:51:08.053Z,11.59
2023-05-12T15:53:34.931Z,12.06
2023-05-12T15:56:03.051Z,12.17
2023-05-12T15:58:30.198Z,12.19
2023-05-12T16:00:57.383Z,12.21
2023-05-12T16:03:26.166Z,12.12
2023-05-12T16:05:53.499Z,11.85
2023-05-12T16:08:20.580Z,11.91
2023-05-12T16:10:47.895Z,12.02
2023-05-12T16:13:14.788Z,11.83
2023-05-12T16:15:41.790Z,11.66
2023-05-12T16:18:11.287Z,11.55
2023-05-12T16:20:39.168Z,11.58
2023-05-12T16:23:06.246Z,11.62
2023-05-12T16:25:33.102Z,11.59
2023-05-12T16:27:59.967Z,11.25
2023-05-12T16:30:27.121Z,11.14
2023-05-12T16:32:53.967Z,10.97
2023-05-12T16:35:21.417Z,11.12
2023-05-12T16:37:48.451Z,10.95
2023-05-12T16:40:15.694Z,11.10
2023-05-12T16:42:42.963Z,11.09
2023-05-12T16:45:11.169Z,11.21
2023-05-12T16:47:38.473Z,11.29
2023-05-12T16:50:06.438Z,11.50
2023-05-12T16:52:34.204Z,11.47
2023-05-12T16:55:01.123Z,11.63
2023-05-12T16:57:28.518Z,11.43
2023-05-12T16:59:55.577Z,11.60
2023-05-12T17:02:23.653Z,11.76
2023-05-12T17:04:50.645Z,11.84
2023-05-12T17:07:17.567Z,11.78
2023-05-12T17:09:44.384Z,11.87
2023-05-12T17:12:11.323Z,11.72
2023-05-12T17:14:38.137Z,11.82
2023-05-12T17:17:05.235Z,11.88
2023-05-12T17:19:33.376Z,11.92
2023-05-12T17:22:01.344Z,11.87
2023-05-12T17:24:28.288Z,11.64
2023-05-12T17:26:55.485Z,11.34
2023-05-12T17:29:22.429Z,11.24
2023-05-12T17:31:49.462Z,10.93
2023-05-12T17:34:16.786Z,10.86
2023-05-12T17:36:43.621Z,10.83
2023-05-12T17:39:10.748Z,10.85
2023-05-12T17:41:40.735Z,10.82
2023-05-12T17:44:07.683Z,10.93
2023-05-12T17:46:34.709Z,11.01
2023-05-12T17:49:01.772Z,10.87
2023-05-12T17:51:30.567Z,10.86
2023-05-12T17:53:57.465Z,10.67
2023-05-12T17:56:24.926Z,10.69
2023-05-12T17:58:51.807Z,10.76
2023-05-12T18:01:18.735Z,10.70
2023-05-12T18:03:46.203Z,10.73
2023-05-12T18:06:15.040Z,10.69
2023-05-12T18:08:42.070Z,10.76
2023-05-12T18:11:09.124Z,10.87
2023-05-12T18:13:35.948Z,10.78
2023-05-12T18:16:02.840Z,10.68
2023-05-12T18:18:30.054Z,10.83
2023-05-12T18:20:57.072Z,10.65
2023-05-12T18:23:23.887Z,10.51
2023-05-12T18:25:51.325Z,10.35
2023-05-12T18:28:18.174Z,10.56
2023-05-12T18:30:45.090Z,10.34
2023-05-12T18:33:12.143Z,10.46
2023-05-12T18:35:38.986Z,10.56
2023-05-12T18:38:07.515Z,10.74
2023-05-12T18:40:35.356Z,10.75
2023-05-12T18:43:02.380Z,10.69
2023-05-12T18:45:29.278Z,10.73
2023-05-12T18:47:56.285Z,10.62
2023-05-12T18:50:23.340Z,10.78
2023-05-12T18:52:50.406Z,10.76
2023-05-12T18:55:17.833Z,10.79
2023-05-12T18:57:44.852Z,10.80
2023-05-12T19:00:12.192Z,10.75
2023-05-12T19:02:39.196Z,10.70
2023-05-12T19:05:06.698Z,10.88
2023-05-12T19:07:33.707Z,10.92
2023-05-12T19:10:00.595Z,10.86
2023-05-12T19:12:27.402Z,10.84
2023-05-12T19:14:54.431Z,10.74
2023-05-12T19:17:22.607Z,10.73
2023-05-12T19:19:50.863Z,10.56
2023-05-12T19:22:18.411Z,10.48
2023-05-12T19:30:37.161Z,10.64
2023-05-12T19:33:04.090Z,10.69
2023-05-12T19:35:31.228Z,10.65
2023-05-12T19:37:58.168Z,10.60
2023-05-12T19:40:25.008Z,10.61
2023-05-12T19:42:53.464Z,10.73
2023-05-12T19:45:20.874Z,10.52
2023-05-12T19:47:48.190Z,10.54
2023-05-12T19:50:15.290Z,10.73
2023-05-12T19:52:42.298Z,10.75
2023-05-12T19:55:09.875Z,10.55
2023-05-12T19:57:37.784Z,10.54
2023-05-12T20:00:05.822Z,10.55
2023-05-12T20:02:32.954Z,10.57
2023-05-12T20:05:01.046Z,10.62
2023-05-12T20:10:10.138Z,10.62
2023-05-12T20:15:12.635Z,10.48
2023-05-12T20:17:39.658Z,10.58
2023-05-12T20:20:07.888Z,10.55
2023-05-12T20:22:34.911Z,10.61
2023-05-12T20:25:04.514Z,10.52
2023-05-12T20:27:32.344Z,10.59
2023-05-12T20:29:59.550Z,10.41
2023-05-12T20:32:26.936Z,10.63
2023-05-12T20:34:53.838Z,10.56
2023-05-12T20:37:20.836Z,10.63
2023-05-12T20:39:47.725Z,10.52
2023-05-12T20:42:14.557Z,10.64
2023-05-12T20:44:41.595Z,10.77
2023-05-12T20:47:09.299Z,10.77
2023-05-12T20:49:36.306Z,10.77
2023-05-12T20:52:03.381Z,10.83
2023-05-12T20:54:30.203Z,10.84
2023-05-12T20:56:57.946Z,10.88
2023-05-12T20:59:25.020Z,10.85
2023-05-12T21:01:52.080Z,10.86
2023-05-12T21:04:19.589Z,10.99
2023-05-12T21:06:47.454Z,10.96
2023-05-12T21:09:14.397Z,10.91
2023-05-12T21:11:41.715Z,11.01
2023-05-12T21:14:08.931Z,11.08
2023-05-12T21:16:35.829Z,11.11
2023-05-12T21:19:02.833Z,11.04
2023-05-12T21:21:29.914Z,11.04
2023-05-12T21:23:56.981Z,11.13
2023-05-12T21:26:24.104Z,11.08
2023-05-12T21:28:51.086Z,11.12
2023-05-12T21:31:18.091Z,11.07
2023-05-12T21:33:45.096Z,11.18
2023-05-12T21:36:12.183Z,11.18
2023-05-12T21:38:39.035Z,11.13
2023-05-12T21:41:05.884Z,11.19
2023-05-12T21:43:32.773Z,10.99
2023-05-12T21:46:04.074Z,10.97
2023-05-12T21:48:33.219Z,11.12
2023-05-12T21:51:01.852Z,11.16
2023-05-12T21:53:29.998Z,11.16
2023-05-12T21:55:57.151Z,11.19
2023-05-12T21:58:24.432Z,11.28
2023-05-12T22:00:52.234Z,11.12
2023-05-12T22:03:25.337Z,11.23
2023-05-12T22:05:52.830Z,11.23
2023-05-12T22:08:20.250Z,11.15
2023-05-12T22:10:47.191Z,11.09
2023-05-12T22:13:14.168Z,11.06
2023-05-12T22:15:41.300Z,10.90
2023-05-12T22:18:08.332Z,10.95
2023-05-12T22:20:38.231Z,10.93
2023-05-12T22:23:05.581Z,10.97
2023-05-12T22:25:32.530Z,10.82
2023-05-12T22:27:59.416Z,10.85
2023-05-12T22:30:26.256Z,10.87
2023-05-12T22:32:53.250Z,10.72
2023-05-12T22:35:20.178Z,10.85
2023-05-12T22:37:47.031Z,10.75
2023-05-12T22:40:14.139Z,10.70
2023-05-12T22:42:41.048Z,10.84
2023-05-12T22:45:08.742Z,10.88
2023-05-12T22:47:35.785Z,10.94
2023-05-12T22:50:02.727Z,10.97
2023-05-12T22:52:29.650Z,10.88
2023-05-12T22:54:56.691Z,10.86
2023-05-12T22:57:23.619Z,10.80
2023-05-12T22:59:50.940Z,10.75
2023-05-12T23:02:17.898Z,10.85
2023-05-12T23:04:44.835Z,10.89
2023-05-12T23:07:20.456Z,10.96
2023-05-12T23:09:47.471Z,11.00
2023-05-12T23:12:14.309Z,10.89
2023-05-12T23:14:41.262Z,10.91
2023-05-12T23:17:08.259Z,10.99
2023-05-12T23:19:35.512Z,10.85
2023-05-12T23:22:02.342Z,10.84
2023-05-12T23:24:29.433Z,10.80
2023-05-12T23:26:56.346Z,10.70
2023-05-12T23:29:23.490Z,10.69
2023-05-12T23:31:50.595Z,10.79
2023-05-12T23:34:17.485Z,10.82
2023-05-12T23:36:44.330Z,10.63
2023-05-12T23:39:11.282Z,10.66
2023-05-12T23:41:38.261Z,10.63
2023-05-12T23:44:05.280Z,10.61
2023-05-12T23:46:32.407Z,10.70
2023-05-12T23:48:59.530Z,10.74
2023-05-12T23:51:26.548Z,10.74
2023-05-12T23:53:53.500Z,10.57
2023-05-12T23:56:21.823Z,10.73
2023-05-12T23:58:49.319Z,10.60
